Time;durP1;ratioP1;P1;durP2;ratioP2;P2;SDS_P1;SDS_P2;PMS_P1;PMS_P2;Temp;Humidity;BMP_temperature;BMP_pressure;BME280_temperature;BME280_humidity;BME280_pressure;Samples;Min_cycle;Max_cycle;Signal;HPM_P1;HPM_P2
2020/12/11 00:02:03;;;;;;;6.97;2.60;;;11.40;99.90;;;;;;4796018;29;20042;-77
2020/12/11 00:04:30;;;;;;;5.55;3.10;;;11.40;99.90;;;;;;4802546;29;20031;-77
2020/12/11 00:07:00;;;;;;;4.93;3.33;;;11.30;99.90;;;;;;4777189;29;20042;-77
2020/12/11 00:09:27;;;;;;;5.22;3.30;;;11.30;99.90;;;;;;4784129;30;20046;-77
2020/12/11 00:11:54;;;;;;;7.78;3.65;;;11.20;99.90;;;;;;4797588;29;20398;-77
2020/12/11 00:14:21;;;;;;;12.20;4.15;;;11.10;99.90;;;;;;4803144;29;20092;-77
2020/12/11 00:16:47;;;;;;;7.85;3.22;;;11.10;99.90;;;;;;4803765;29;20050;-76
2020/12/11 00:19:13;;;;;;;6.38;3.25;;;11.10;99.90;;;;;;4803789;29;20031;-77
2020/12/11 00:21:44;;;;;;;6.32;3.22;;;11.00;99.90;;;;;;4803305;29;20209;-78
2020/12/11 00:24:11;;;;;;;8.50;3.92;;;11.10;99.90;;;;;;4803786;29;20490;-77
2020/12/11 00:26:38;;;;;;;8.15;3.28;;;11.10;99.90;;;;;;4787353;29;20046;-78
2020/12/11 00:29:05;;;;;;;4.78;3.10;;;11.10;99.90;;;;;;4812886;29;20148;-77
2020/12/11 00:31:32;;;;;;;6.82;4.15;;;11.10;99.90;;;;;;4808025;29;20031;-77
2020/12/11 00:33:59;;;;;;;7.28;3.90;;;11.10;99.90;;;;;;4811777;29;20382;-77
2020/12/11 00:36:26;;;;;;;6.35;3.53;;;11.10;99.90;;;;;;4786099;29;20433;-78
2020/12/11 00:38:53;;;;;;;5.80;3.45;;;11.00;99.90;;;;;;4802146;29;20042;-78
2020/12/11 00:41:19;;;;;;;10.65;4.10;;;11.00;99.90;;;;;;4802285;29;20031;-78
2020/12/11 00:43:45;;;;;;;8.02;3.85;;;11.00;99.90;;;;;;4802663;29;20055;-78
2020/12/11 00:46:13;;;;;;;8.80;4.43;;;11.00;99.90;;;;;;4803315;29;20113;-78
2020/12/11 00:48:40;;;;;;;7.07;3.53;;;11.00;99.90;;;;;;4803262;29;20521;-78
2020/12/11 00:51:06;;;;;;;8.15;3.22;;;11.00;99.90;;;;;;4803071;29;20521;-77
2020/12/11 00:53:33;;;;;;;5.50;3.78;;;11.00;99.90;;;;;;4772404;30;20035;-78
2020/12/11 00:55:59;;;;;;;4.28;3.13;;;10.90;99.90;;;;;;4785557;30;20046;-77
2020/12/11 00:58:25;;;;;;;8.00;2.78;;;10.90;99.90;;;;;;4785468;29;20092;-78
2020/12/11 01:00:51;;;;;;;7.05;3.03;;;10.90;99.90;;;;;;4785212;30;20092;-77
2020/12/11 01:03:17;;;;;;;7.53;3.50;;;10.80;99.90;;;;;;4778803;29;20034;-78
2020/12/11 01:05:43;;;;;;;4.38;2.53;;;10.70;99.90;;;;;;4803216;29;20031;-77
2020/12/11 01:08:09;;;;;;;4.68;2.63;;;10.70;99.90;;;;;;4802947;29;20502;-78
2020/12/11 01:10:35;;;;;;;4.35;2.53;;;10.70;99.90;;;;;;4802704;29;20043;-78
2020/12/11 01:13:01;;;;;;;5.55;2.53;;;10.70;99.90;;;;;;4796991;29;20028;-77
2020/12/11 01:15:27;;;;;;;5.03;2.45;;;10.60;99.90;;;;;;4769023;29;20123;-78
2020/12/11 01:17:53;;;;;;;5.55;2.70;;;10.70;99.90;;;;;;4784729;30;20033;-77
2020/12/11 01:20:19;;;;;;;6.10;2.40;;;10.70;99.90;;;;;;4784774;30;20031;-77
2020/12/11 01:22:46;;;;;;;5.63;1.95;;;10.70;99.90;;;;;;4785865;29;20035;-78
2020/12/11 01:25:12;;;;;;;3.08;1.75;;;10.70;99.90;;;;;;4802559;29;20038;-77
2020/12/11 01:27:38;;;;;;;2.20;1.80;;;10.80;99.90;;;;;;4802901;29;20062;-77
2020/12/11 01:30:04;;;;;;;4.93;2.10;;;10.80;99.90;;;;;;4802440;29;20034;-78
2020/12/11 01:32:33;;;;;;;7.00;2.65;;;10.80;99.90;;;;;;4802621;29;20043;-78
2020/12/11 01:35:00;;;;;;;4.15;1.65;;;10.80;99.90;;;;;;4787149;29;20303;-78
2020/12/11 01:37:26;;;;;;;3.80;2.03;;;10.90;99.90;;;;;;4784355;30;20031;-78
2020/12/11 01:39:53;;;;;;;4.07;1.85;;;10.90;99.90;;;;;;4768043;30;20100;-77
2020/12/11 01:42:19;;;;;;;4.70;2.05;;;10.90;99.90;;;;;;4784360;30;20047;-78
2020/12/11 01:44:53;;;;;;;6.20;1.92;;;10.80;99.90;;;;;;4795040;29;20050;-77
2020/12/11 01:47:23;;;;;;;7.15;2.45;;;10.90;99.90;;;;;;4802429;29;20063;-77
2020/12/11 01:49:52;;;;;;;2.65;1.85;;;10.80;99.90;;;;;;4802573;29;20386;-77
2020/12/11 01:52:19;;;;;;;6.55;1.88;;;10.80;99.90;;;;;;4802011;29;20439;-78
2020/12/11 01:54:46;;;;;;;2.55;1.73;;;10.80;99.90;;;;;;4793911;29;20042;-78
2020/12/11 01:57:31;;;;;;;6.88;1.70;;;10.60;99.90;;;;;;4784330;29;20069;-78
2020/12/11 01:59:59;;;;;;;4.70;1.73;;;10.60;99.90;;;;;;4784191;30;20031;-78
2020/12/11 02:02:27;;;;;;;3.78;1.52;;;10.70;99.90;;;;;;4784422;29;20023;-77
2020/12/11 02:04:53;;;;;;;5.72;1.90;;;10.70;99.90;;;;;;4774424;29;20062;-78
2020/12/11 02:07:20;;;;;;;3.78;1.50;;;10.60;99.90;;;;;;4802100;29;20095;-78
2020/12/11 02:09:46;;;;;;;5.47;1.50;;;10.60;99.90;;;;;;4802585;29;20033;-77
2020/12/11 02:12:12;;;;;;;4.00;1.27;;;10.60;99.90;;;;;;4785864;29;20051;-77
2020/12/11 02:14:38;;;;;;;4.55;1.48;;;10.60;99.90;;;;;;4799490;29;20019;-78
2020/12/11 02:17:06;;;;;;;3.53;1.15;;;10.70;99.90;;;;;;4784193;30;20039;-77
2020/12/11 02:19:33;;;;;;;3.08;1.42;;;10.70;99.90;;;;;;4768419;30;20390;-78
2020/12/11 02:22:05;;;;;;;3.50;1.58;;;10.70;99.90;;;;;;4784025;29;20444;-77
2020/12/11 02:24:31;;;;;;;4.03;2.25;;;10.60;99.90;;;;;;4767802;30;20035;-78
2020/12/11 02:26:59;;;;;;;2.72;1.55;;;10.60;99.90;;;;;;4799819;29;20076;-78
2020/12/11 02:29:25;;;;;;;7.20;1.40;;;10.70;99.90;;;;;;4801754;29;20063;-78
2020/12/11 02:31:52;;;;;;;2.03;1.30;;;10.70;99.90;;;;;;4801772;29;20031;-77
2020/12/11 02:34:19;;;;;;;6.72;1.15;;;10.70;99.90;;;;;;4784313;29;20042;-77
2020/12/11 02:36:45;;;;;;;1.83;1.35;;;10.70;99.90;;;;;;4802061;29;20042;-77
2020/12/11 02:39:12;;;;;;;5.85;1.17;;;10.70;99.90;;;;;;4801977;29;20035;-78
2020/12/11 02:41:38;;;;;;;3.97;1.38;;;10.70;99.90;;;;;;4801920;29;20034;-77
2020/12/11 02:44:04;;;;;;;6.05;1.30;;;10.70;99.90;;;;;;4791744;29;20499;-78
2020/12/11 02:46:31;;;;;;;4.97;1.10;;;10.70;99.90;;;;;;4767946;30;20043;-78
2020/12/11 02:48:57;;;;;;;4.00;1.00;;;10.80;99.90;;;;;;4767480;30;20483;-78
2020/12/11 02:51:24;;;;;;;3.35;1.17;;;10.80;99.90;;;;;;4783516;29;20110;-77
2020/12/11 02:53:50;;;;;;;3.00;1.60;;;10.80;99.90;;;;;;4787937;29;20482;-78
2020/12/11 02:56:22;;;;;;;4.43;1.05;;;10.90;99.90;;;;;;4801265;29;20035;-78
2020/12/11 02:58:49;;;;;;;2.90;1.20;;;10.90;99.90;;;;;;4800413;29;20038;-78
2020/12/11 03:01:15;;;;;;;1.83;0.88;;;10.80;99.90;;;;;;4801712;29;20050;-78
2020/12/11 03:03:42;;;;;;;3.60;1.63;;;10.80;99.90;;;;;;4800787;29;20035;-78
2020/12/11 03:06:08;;;;;;;2.40;1.20;;;10.90;99.90;;;;;;4784320;29;20039;-78
2020/12/11 03:08:35;;;;;;;2.13;0.90;;;10.80;99.90;;;;;;4787254;29;20101;-78
2020/12/11 03:11:01;;;;;;;1.85;1.10;;;10.90;99.90;;;;;;4787144;30;20035;-78
2020/12/11 03:13:27;;;;;;;2.42;1.40;;;10.80;99.90;;;;;;4786904;29;20042;-78
2020/12/11 03:15:53;;;;;;;4.97;1.58;;;10.90;99.90;;;;;;4801375;29;20051;-76
2020/12/11 03:18:19;;;;;;;5.35;2.00;;;10.90;99.90;;;;;;4805087;29;20031;-77
2020/12/11 03:20:46;;;;;;;2.65;1.20;;;11.00;99.90;;;;;;4805280;29;20061;-78
2020/12/11 03:23:12;;;;;;;3.08;1.30;;;11.00;99.90;;;;;;4805077;29;20054;-77
2020/12/11 03:25:38;;;;;;;3.60;1.10;;;11.00;99.90;;;;;;4794575;29;20497;-77
2020/12/11 03:28:04;;;;;;;2.65;1.10;;;11.00;99.90;;;;;;4786435;29;20410;-78
2020/12/11 03:30:30;;;;;;;2.35;1.35;;;11.00;99.90;;;;;;4786695;29;20032;-79
2020/12/11 03:32:56;;;;;;;6.00;2.20;;;11.00;99.90;;;;;;4794288;29;20205;-79
2020/12/11 03:35:22;;;;;;;2.83;0.98;;;11.00;99.90;;;;;;4787738;29;20042;-79
2020/12/11 03:37:49;;;;;;;4.53;1.30;;;11.00;99.90;;;;;;4804625;29;20036;-78
2020/12/11 03:40:15;;;;;;;4.97;1.23;;;11.00;99.90;;;;;;4804692;29;20031;-78
2020/12/11 03:42:41;;;;;;;2.67;1.02;;;11.00;99.90;;;;;;4804306;29;20054;-78
2020/12/11 03:45:07;;;;;;;3.53;0.95;;;11.10;99.90;;;;;;4803205;29;20130;-77
2020/12/11 03:47:33;;;;;;;2.05;0.85;;;11.10;99.90;;;;;;4786597;29;20418;-78
2020/12/11 03:49:59;;;;;;;4.82;1.13;;;11.10;99.90;;;;;;4786476;30;20064;-79
2020/12/11 03:52:30;;;;;;;1.48;0.85;;;11.10;99.90;;;;;;4786281;29;20054;-79
2020/12/11 03:54:57;;;;;;;5.40;1.10;;;11.20;99.90;;;;;;4786542;29;20047;-78
2020/12/11 03:57:23;;;;;;;7.45;1.27;;;11.20;99.90;;;;;;4785170;29;20043;-78
2020/12/11 03:59:50;;;;;;;3.58;1.27;;;11.10;99.90;;;;;;4804239;29;20035;-77
2020/12/11 04:02:16;;;;;;;2.75;0.82;;;11.10;99.90;;;;;;4804335;29;20397;-78
2020/12/11 04:04:45;;;;;;;3.95;1.45;;;11.20;99.90;;;;;;4804391;29;20031;-77
2020/12/11 04:07:12;;;;;;;3.00;1.08;;;11.20;99.90;;;;;;4803728;29;20035;-78
2020/12/11 04:09:39;;;;;;;3.08;0.98;;;11.20;99.90;;;;;;4804189;29;20027;-78
2020/12/11 04:12:05;;;;;;;3.53;1.05;;;11.30;99.90;;;;;;4804089;29;20031;-78
2020/12/11 04:14:31;;;;;;;2.60;1.20;;;11.30;99.90;;;;;;4804141;29;20474;-79
2020/12/11 04:17:00;;;;;;;6.07;1.25;;;11.30;99.90;;;;;;4796502;29;20135;-78
2020/12/11 04:19:27;;;;;;;1.88;0.77;;;11.30;99.90;;;;;;4785123;30;20410;-79
2020/12/11 04:21:54;;;;;;;6.35;1.20;;;11.30;99.90;;;;;;4785825;29;20078;-78
2020/12/11 04:24:23;;;;;;;1.92;0.70;;;11.30;99.90;;;;;;4785821;29;20371;-79
2020/12/11 04:26:49;;;;;;;1.60;0.85;;;11.30;99.90;;;;;;4788798;29;20031;-78
2020/12/11 04:29:15;;;;;;;2.58;1.20;;;11.30;99.90;;;;;;4803383;29;20394;-78
2020/12/11 04:31:42;;;;;;;2.90;1.08;;;11.30;99.90;;;;;;4804189;29;20126;-77
2020/12/11 04:34:08;;;;;;;2.22;0.57;;;11.30;99.90;;;;;;4803761;29;20042;-78
2020/12/11 04:36:34;;;;;;;4.18;0.70;;;11.30;99.90;;;;;;4803497;29;20043;-77
2020/12/11 04:39:00;;;;;;;2.45;0.90;;;11.30;99.90;;;;;;4786272;29;20065;-80
2020/12/11 04:41:29;;;;;;;1.77;0.55;;;11.30;99.90;;;;;;4785409;29;20043;-77
2020/12/11 04:43:56;;;;;;;3.47;1.33;;;11.40;99.90;;;;;;4785345;29;20086;-77
2020/12/11 04:46:27;;;;;;;3.20;0.60;;;11.40;99.90;;;;;;4785218;29;20380;-79
2020/12/11 04:48:56;;;;;;;3.38;0.80;;;11.40;99.90;;;;;;4785602;29;20044;-78
2020/12/11 04:51:29;;;;;;;3.03;1.13;;;11.40;99.90;;;;;;4785287;29;20040;-77
2020/12/11 04:53:58;;;;;;;1.98;0.75;;;11.40;99.90;;;;;;4785311;29;20513;-78
2020/12/11 04:56:25;;;;;;;1.95;0.70;;;11.40;99.90;;;;;;4785215;29;20460;-78
2020/12/11 04:58:52;;;;;;;2.83;1.15;;;11.40;99.90;;;;;;4795915;29;20121;-78
2020/12/11 05:01:31;;;;;;;1.25;0.50;;;11.40;99.90;;;;;;4803517;29;20030;-77
2020/12/11 05:03:59;;;;;;;5.25;0.77;;;11.40;99.90;;;;;;4803080;29;20035;-78
2020/12/11 05:06:25;;;;;;;4.20;0.80;;;11.40;99.90;;;;;;4802971;29;20031;-78
2020/12/11 05:09:13;;;;;;;5.00;0.65;;;11.50;99.90;;;;;;4797882;29;20497;-78
2020/12/11 05:11:40;;;;;;;2.20;0.60;;;11.50;99.90;;;;;;4785226;29;20035;-78
2020/12/11 05:14:31;;;;;;;1.58;0.80;;;11.50;99.90;;;;;;4784976;30;20045;-78
2020/12/11 05:17:01;;;;;;;4.28;1.05;;;11.50;99.90;;;;;;4784908;29;20569;-78
2020/12/11 05:19:32;;;;;;;3.88;0.80;;;11.50;99.90;;;;;;4784833;29;20084;-78
2020/12/11 05:22:12;;;;;;;3.35;1.33;;;11.60;99.90;;;;;;4802142;29;20030;-77
2020/12/11 05:24:56;;;;;;;3.30;1.30;;;11.60;99.90;;;;;;4802865;29;20027;-78
2020/12/11 05:27:43;;;;;;;5.07;1.92;;;11.60;99.90;;;;;;4802585;29;20039;-79
2020/12/11 05:30:18;;;;;;;4.85;1.50;;;11.60;99.90;;;;;;4801173;29;20071;-77
2020/12/11 05:32:51;;;;;;;5.82;1.13;;;11.60;99.90;;;;;;4784578;29;20031;-78
2020/12/11 05:35:17;;;;;;;;;;;11.40;99.90;;;;;;4784962;29;20441;-78
2020/12/11 05:37:50;;;;;;;5.82;1.83;;;11.40;99.90;;;;;;4784926;29;19944;-78
2020/12/11 05:40:37;;;;;;;2.13;0.90;;;11.40;99.90;;;;;;4784681;29;20930;-78
2020/12/11 05:43:04;;;;;;;4.57;0.80;;;11.40;99.90;;;;;;4784218;29;20054;-78
2020/12/11 05:45:34;;;;;;;3.08;1.10;;;11.40;99.90;;;;;;4784421;29;20039;-78
2020/12/11 05:48:06;;;;;;;2.05;0.90;;;11.40;99.90;;;;;;4784311;29;20456;-78
2020/12/11 05:50:34;;;;;;;2.13;1.00;;;11.40;99.90;;;;;;4784574;30;20036;-78
2020/12/11 05:53:00;;;;;;;5.28;1.75;;;11.50;99.90;;;;;;4800293;29;20094;-78
2020/12/11 05:55:26;;;;;;;5.70;1.67;;;11.50;99.90;;;;;;4802192;29;20165;-78
2020/12/11 05:57:58;;;;;;;3.00;1.52;;;11.50;99.90;;;;;;4802396;29;20031;-78
2020/12/11 06:00:25;;;;;;;3.72;1.30;;;11.50;99.90;;;;;;4802071;29;20043;-77
2020/12/11 06:02:53;;;;;;;4.50;1.02;;;11.50;99.90;;;;;;4789354;29;20098;-78
2020/12/11 06:05:22;;;;;;;4.93;1.00;;;11.50;99.90;;;;;;4784592;30;20027;-79
2020/12/11 06:07:50;;;;;;;4.35;1.42;;;11.50;99.90;;;;;;4784030;30;20394;-77
2020/12/11 06:10:27;;;;;;;2.92;0.93;;;11.50;99.90;;;;;;4772353;29;20035;-78
2020/12/11 06:12:53;;;;;;;6.45;3.45;;;11.50;99.90;;;;;;4808718;29;20103;-77
2020/12/11 06:15:22;;;;;;;5.28;1.98;;;11.50;99.90;;;;;;4809227;29;20034;-77
2020/12/11 06:17:48;;;;;;;2.65;1.45;;;11.50;99.90;;;;;;4811000;29;20458;-77
2020/12/11 06:20:17;;;;;;;4.93;1.10;;;11.40;99.90;;;;;;4810370;29;20432;-77
2020/12/11 06:22:46;;;;;;;2.60;1.30;;;11.40;99.90;;;;;;4809958;29;20045;-78
2020/12/11 06:25:48;;;;;;;5.40;1.20;;;11.50;99.90;;;;;;4807710;29;20035;-77
2020/12/11 06:28:40;;;;;;;9.73;1.10;;;11.50;99.90;;;;;;4806410;29;20022;-78
2020/12/11 06:31:09;;;;;;;2.92;1.23;;;11.40;99.90;;;;;;4799815;29;20097;-79
2020/12/11 06:33:37;;;;;;;6.05;1.98;;;11.40;99.90;;;;;;4799926;29;20490;-78
2020/12/11 06:36:04;;;;;;;3.45;1.92;;;11.40;99.90;;;;;;4801750;29;20391;-78
2020/12/11 06:38:48;;;;;;;3.38;1.10;;;11.40;99.90;;;;;;4801796;29;20054;-77
2020/12/11 06:41:41;;;;;;;1.33;1.10;;;11.50;99.90;;;;;;4802806;29;20110;-78
2020/12/11 06:44:19;;;;;;;3.92;1.17;;;11.50;99.90;;;;;;4791428;29;20047;-77
2020/12/11 06:47:04;;;;;;;2.60;1.13;;;11.50;99.90;;;;;;4787392;29;20479;-79
2020/12/11 06:49:30;;;;;;;2.60;1.00;;;11.50;99.90;;;;;;4787340;29;20153;-79
2020/12/11 06:51:56;;;;;;;2.25;1.15;;;11.50;99.90;;;;;;4787585;29;20482;-79
2020/12/11 06:54:22;;;;;;;2.25;1.00;;;11.50;99.90;;;;;;4797432;29;20042;-78
2020/12/11 06:56:53;;;;;;;2.72;1.05;;;11.40;99.90;;;;;;4805380;29;20058;-78
2020/12/11 06:59:24;;;;;;;1.52;0.70;;;11.40;99.90;;;;;;4805197;29;20039;-78
2020/12/11 07:02:17;;;;;;;2.97;1.25;;;11.50;99.90;;;;;;4805401;29;20383;-80
2020/12/11 07:04:48;;;;;;;1.20;0.85;;;11.50;99.90;;;;;;4792316;29;20048;-78
2020/12/11 07:07:14;;;;;;;3.83;1.35;;;11.50;99.90;;;;;;4795991;29;20046;-78
2020/12/11 07:09:42;;;;;;;3.03;1.50;;;11.50;99.90;;;;;;4805405;29;20034;-80
2020/12/11 07:12:08;;;;;;;1.95;1.25;;;11.50;99.90;;;;;;4805098;29;20403;-78
2020/12/11 07:14:35;;;;;;;4.18;1.30;;;11.50;99.90;;;;;;4805149;29;20030;-79
2020/12/11 07:17:01;;;;;;;3.72;1.40;;;11.60;99.90;;;;;;4800659;29;20134;-78
2020/12/11 07:19:38;;;;;;;3.95;1.50;;;11.50;99.90;;;;;;4786818;29;20031;-78
2020/12/11 07:22:05;;;;;;;5.55;2.28;;;11.60;99.90;;;;;;4786901;29;20043;-78
2020/12/11 07:24:34;;;;;;;3.60;1.50;;;11.60;99.90;;;;;;4786692;29;20114;-78
2020/12/11 07:27:05;;;;;;;4.50;2.13;;;11.60;99.90;;;;;;4788204;29;20027;-79
2020/12/11 07:29:31;;;;;;;3.70;1.60;;;11.60;99.90;;;;;;4804648;29;20031;-78
2020/12/11 07:31:57;;;;;;;6.07;1.60;;;11.60;99.90;;;;;;4804696;29;20133;-79
2020/12/11 07:34:26;;;;;;;2.00;1.10;;;11.60;99.90;;;;;;4804613;29;20046;-78
2020/12/11 07:36:55;;;;;;;5.00;1.30;;;11.60;99.90;;;;;;4788542;29;20079;-78
2020/12/11 07:39:29;;;;;;;10.23;1.90;;;11.60;99.90;;;;;;4787941;29;20042;-78
2020/12/11 07:42:00;;;;;;;2.30;1.40;;;11.60;99.90;;;;;;4786281;29;20031;-78
2020/12/11 07:44:35;;;;;;;5.00;1.52;;;11.70;99.90;;;;;;4786358;29;20047;-78
2020/12/11 07:47:07;;;;;;;4.78;1.20;;;11.70;99.90;;;;;;4786333;29;20142;-78
2020/12/11 07:49:35;;;;;;;2.35;1.00;;;11.70;99.90;;;;;;4786296;29;20133;-78
2020/12/11 07:52:02;;;;;;;3.35;1.10;;;11.70;99.90;;;;;;4807152;29;20039;-79
2020/12/11 07:54:38;;;;;;;5.78;1.70;;;11.70;99.90;;;;;;4804287;29;20062;-78
2020/12/11 07:57:09;;;;;;;5.28;1.77;;;11.70;99.90;;;;;;4804156;29;20520;-78
2020/12/11 07:59:35;;;;;;;7.50;1.95;;;11.80;99.90;;;;;;4790659;29;20032;-79
2020/12/11 08:02:01;;;;;;;2.97;1.30;;;11.80;99.90;;;;;;4786099;29;20407;-78
2020/12/11 08:04:27;;;;;;;2.65;1.48;;;11.90;99.90;;;;;;4770208;30;20027;-78
2020/12/11 08:06:59;;;;;;;4.45;1.73;;;11.90;99.90;;;;;;4769878;30;20567;-80
2020/12/11 08:09:30;;;;;;;6.93;2.03;;;11.90;99.90;;;;;;4795418;29;20113;-79
2020/12/11 08:12:15;;;;;;;4.80;1.88;;;12.00;99.90;;;;;;4804028;29;20035;-78
2020/12/11 08:14:42;;;;;;;5.32;2.38;;;11.90;99.90;;;;;;4804108;29;20031;-79
2020/12/11 08:17:10;;;;;;;5.80;2.10;;;11.90;99.90;;;;;;4803917;29;20154;-80
2020/12/11 08:19:36;;;;;;;6.43;2.13;;;11.90;99.90;;;;;;4795674;29;20181;-80
2020/12/11 08:22:16;;;;;;;4.57;2.53;;;11.90;99.90;;;;;;4785676;29;20492;-78
2020/12/11 08:24:44;;;;;;;4.50;1.98;;;11.90;99.90;;;;;;4785975;29;20036;-79
2020/12/11 08:27:25;;;;;;;4.78;1.95;;;11.90;99.90;;;;;;4785658;29;20679;-80
2020/12/11 08:30:04;;;;;;;3.15;1.90;;;12.00;99.90;;;;;;4776849;29;20444;-78
2020/12/11 08:32:31;;;;;;;6.43;2.17;;;12.10;99.90;;;;;;4803879;29;20436;-78
2020/12/11 08:34:57;;;;;;;7.28;2.13;;;12.20;99.90;;;;;;4803658;29;20069;-78
2020/12/11 08:37:23;;;;;;;4.63;2.13;;;12.20;99.90;;;;;;4803344;29;20050;-78
2020/12/11 08:39:49;;;;;;;4.88;2.20;;;12.30;99.90;;;;;;4798998;29;20110;-78
2020/12/11 08:47:43;;;;;;;6.63;1.70;;;12.40;99.90;;;;;;4769177;30;20411;-78
2020/12/11 08:50:29;;;;;;;5.40;2.17;;;12.40;99.90;;;;;;4789635;29;20039;-78
2020/12/11 08:52:56;;;;;;;3.35;1.85;;;12.30;99.90;;;;;;4803541;29;20046;-79
2020/12/11 08:55:22;;;;;;;5.28;1.77;;;12.30;99.90;;;;;;4794038;29;20023;-78
2020/12/11 08:57:49;;;;;;;5.40;2.42;;;12.30;99.90;;;;;;4792933;29;20054;-77
2020/12/11 09:00:17;;;;;;;7.30;1.95;;;12.30;99.90;;;;;;4800047;29;20031;-77
2020/12/11 09:02:43;;;;;;;3.15;2.22;;;12.30;99.90;;;;;;4803003;29;20057;-78
2020/12/11 09:05:09;;;;;;;8.18;2.42;;;12.30;99.90;;;;;;4802216;29;20058;-77
2020/12/11 09:07:36;;;;;;;4.57;1.75;;;12.30;99.90;;;;;;4795954;29;20054;-77
2020/12/11 09:10:03;;;;;;;5.10;2.35;;;12.20;99.90;;;;;;4787662;29;20440;-78
2020/12/11 09:12:29;;;;;;;2.35;1.60;;;12.30;99.90;;;;;;4803049;29;20380;-78
2020/12/11 09:14:55;;;;;;;2.70;1.38;;;12.30;99.90;;;;;;4802395;29;20088;-77
2020/12/11 09:17:21;;;;;;;3.40;1.98;;;12.30;99.90;;;;;;4802027;29;20037;-77
2020/12/11 09:19:47;;;;;;;2.08;1.30;;;12.30;99.90;;;;;;4802771;29;20034;-77
2020/12/11 09:22:13;;;;;;;3.05;1.60;;;12.40;99.90;;;;;;4786275;29;20031;-77
2020/12/11 09:24:40;;;;;;;3.65;1.40;;;12.40;99.90;;;;;;4802504;29;20035;-76
2020/12/11 09:27:07;;;;;;;4.35;2.35;;;12.40;99.90;;;;;;4802586;29;20042;-77
2020/12/11 09:29:38;;;;;;;5.22;2.05;;;12.50;99.90;;;;;;4785022;29;20397;-77
2020/12/11 09:32:06;;;;;;;6.28;2.58;;;12.60;99.90;;;;;;4784320;29;20031;-77
2020/12/11 09:34:34;;;;;;;3.25;2.30;;;12.60;99.90;;;;;;4784403;29;20032;-78
2020/12/11 09:37:04;;;;;;;2.65;1.83;;;12.70;99.90;;;;;;4784296;29;20095;-77
2020/12/11 09:39:30;;;;;;;4.22;1.85;;;12.70;99.90;;;;;;4798360;29;20031;-76
2020/12/11 09:42:11;;;;;;;2.35;1.67;;;12.70;99.90;;;;;;4792167;29;20122;-76
2020/12/11 09:48:12;;;;;;;9.98;2.67;;;12.70;99.90;;;;;;4784472;29;20035;-76
2020/12/11 09:53:35;;;;;;;1.75;1.38;;;12.70;99.90;;;;;;4776512;30;20051;-76
2020/12/11 09:56:04;;;;;;;6.72;1.92;;;12.70;99.90;;;;;;4784260;29;20122;-73
2020/12/11 09:58:55;;;;;;;3.55;1.48;;;12.70;99.90;;;;;;4784056;29;20038;-74
2020/12/11 10:04:31;;;;;;;3.42;1.60;;;12.50;99.90;;;;;;4783824;29;20038;-74
2020/12/11 10:07:00;;;;;;;4.15;1.90;;;12.50;99.90;;;;;;4783892;29;20110;-74
2020/12/11 10:09:26;;;;;;;3.58;1.50;;;12.60;99.90;;;;;;4787458;29;20113;-73
2020/12/11 10:11:54;;;;;;;6.53;2.10;;;12.50;99.90;;;;;;4801960;29;20851;-75
2020/12/11 10:14:26;;;;;;;2.03;1.05;;;12.60;99.90;;;;;;4785478;29;20047;-74
2020/12/11 10:16:56;;;;;;;1.50;1.05;;;12.60;99.90;;;;;;4801134;29;20156;-75
2020/12/11 10:19:22;;;;;;;3.83;0.90;;;12.60;99.90;;;;;;4799958;29;20031;-74
2020/12/11 10:21:50;;;;;;;2.10;0.70;;;12.70;99.90;;;;;;4801710;29;20554;-74
2020/12/11 10:24:16;;;;;;;2.22;0.90;;;12.60;99.90;;;;;;4783431;29;20035;-74
2020/12/11 10:26:43;;;;;;;2.15;0.50;;;12.70;99.90;;;;;;4798294;29;20026;-74
2020/12/11 10:29:09;;;;;;;3.63;1.15;;;12.80;99.90;;;;;;4801020;29;20031;-74
2020/12/11 10:31:36;;;;;;;2.17;0.80;;;12.90;99.90;;;;;;4801665;29;20403;-74
2020/12/11 10:34:02;;;;;;;9.02;0.82;;;13.00;99.90;;;;;;4803661;29;20386;-74
2020/12/11 10:36:32;;;;;;;7.75;0.85;;;13.00;99.90;;;;;;4810406;29;20030;-74
2020/12/11 10:38:58;;;;;;;1.20;0.68;;;13.00;99.90;;;;;;4801470;29;20102;-74
2020/12/11 10:41:26;;;;;;;3.15;0.88;;;13.10;99.90;;;;;;4801238;29;20046;-74
2020/12/11 10:43:53;;;;;;;1.73;0.43;;;13.10;99.90;;;;;;4805684;29;20058;-74
2020/12/11 10:46:19;;;;;;;4.15;1.45;;;13.20;99.90;;;;;;4801738;29;20070;-74
2020/12/11 10:48:45;;;;;;;5.45;1.77;;;13.10;99.90;;;;;;4806769;29;20400;-74
2020/12/11 10:51:13;;;;;;;3.55;1.20;;;13.20;99.90;;;;;;4817415;29;20031;-75
2020/12/11 10:53:41;;;;;;;5.85;1.00;;;13.20;99.90;;;;;;4794227;29;20039;-74
2020/12/11 10:56:09;;;;;;;1.02;0.70;;;13.30;99.90;;;;;;4801194;29;20533;-74
2020/12/11 10:58:35;;;;;;;2.45;1.40;;;13.40;99.90;;;;;;4798411;29;20128;-73
2020/12/11 11:01:06;;;;;;;5.72;0.70;;;13.40;99.90;;;;;;4807268;29;20046;-74
2020/12/11 11:03:35;;;;;;;3.35;0.85;;;13.40;99.90;;;;;;4784011;29;20035;-73
2020/12/11 11:06:08;;;;;;;3.45;0.85;;;13.40;99.90;;;;;;4783394;30;20091;-74
2020/12/11 11:08:46;;;;;;;4.82;1.10;;;13.40;99.90;;;;;;4783407;30;20118;-75
2020/12/11 11:11:24;;;;;;;2.33;1.00;;;13.40;99.90;;;;;;4790554;29;20039;-75
2020/12/11 11:16:24;;;;;;;2.42;0.80;;;13.40;99.90;;;;;;4783365;29;20051;-74
2020/12/11 11:18:56;;;;;;;2.90;0.30;;;13.40;99.90;;;;;;4790127;29;20590;-74
2020/12/11 11:24:12;;;;;;;1.60;0.40;;;13.50;99.90;;;;;;4790531;29;20027;-75
2020/12/11 11:26:44;;;;;;;1.88;0.52;;;13.60;99.90;;;;;;4800314;29;20046;-74
2020/12/11 11:29:10;;;;;;;1.52;0.43;;;13.80;99.90;;;;;;4802432;29;20042;-75
2020/12/11 11:31:36;;;;;;;3.58;1.00;;;13.90;99.90;;;;;;4803834;29;20354;-75
2020/12/11 11:34:04;;;;;;;1.95;0.63;;;14.00;99.90;;;;;;4804436;29;20031;-75
2020/12/11 11:36:32;;;;;;;1.83;0.68;;;14.00;99.90;;;;;;4804320;29;20418;-75
2020/12/11 11:38:58;;;;;;;2.35;0.80;;;14.10;99.90;;;;;;4795839;29;20031;-75
2020/12/11 11:46:35;;;;;;;3.20;0.60;;;14.00;99.90;;;;;;4786196;29;20466;-75
2020/12/11 11:49:01;;;;;;;1.52;0.95;;;13.90;99.90;;;;;;4795458;29;20058;-76
2020/12/11 11:51:39;;;;;;;3.47;0.60;;;13.90;99.90;;;;;;4803966;29;20055;-74
2020/12/11 11:54:07;;;;;;;3.15;0.43;;;13.80;99.90;;;;;;4793165;29;20038;-74
2020/12/11 11:56:33;;;;;;;2.55;0.57;;;13.90;99.90;;;;;;4807092;29;20596;-77
2020/12/11 11:58:59;;;;;;;0.93;0.40;;;13.80;99.90;;;;;;4818934;29;20375;-77
2020/12/11 12:01:25;;;;;;;1.98;0.60;;;13.80;99.90;;;;;;4821845;29;20046;-75
2020/12/11 12:03:51;;;;;;;1.67;0.70;;;13.80;99.90;;;;;;4800599;29;20023;-75
2020/12/11 12:06:23;;;;;;;2.92;0.65;;;13.80;99.90;;;;;;4804190;29;20035;-80
2020/12/11 12:08:49;;;;;;;5.63;1.08;;;13.70;99.90;;;;;;4803820;29;20486;-76
2020/12/11 12:11:15;;;;;;;1.27;0.40;;;13.70;99.90;;;;;;4803684;29;20060;-77
2020/12/11 12:13:41;;;;;;;3.80;0.90;;;13.70;99.90;;;;;;4803303;29;20355;-77
2020/12/11 12:16:07;;;;;;;2.35;0.73;;;13.70;99.90;;;;;;4803468;29;20061;-75
2020/12/11 12:18:37;;;;;;;2.25;0.68;;;13.60;99.90;;;;;;4803880;29;20031;-78
2020/12/11 12:21:13;;;;;;;2.25;0.77;;;13.60;99.90;;;;;;4803702;29;20039;-75
2020/12/11 12:28:57;;;;;;;2.83;0.50;;;13.70;99.90;;;;;;4796111;29;20065;-74
2020/12/11 12:31:28;;;;;;;1.42;1.00;;;13.70;99.90;;;;;;4799961;29;20099;-79
2020/12/11 12:44:31;;;;;;;2.92;0.93;;;13.70;99.90;;;;;;4784989;29;20388;-75
2020/12/11 12:46:57;;;;;;;0.82;0.40;;;13.70;99.90;;;;;;4785122;30;20043;-75
2020/12/11 12:49:24;;;;;;;3.20;0.77;;;13.70;99.90;;;;;;4796223;29;20578;-75
2020/12/11 12:51:50;;;;;;;2.00;0.55;;;13.70;99.90;;;;;;4802555;29;20027;-74
2020/12/11 12:54:16;;;;;;;3.33;0.60;;;13.70;99.90;;;;;;4785262;29;20043;-80
2020/12/11 12:56:46;;;;;;;1.83;0.60;;;13.70;99.90;;;;;;4784798;29;20103;-78
2020/12/11 13:02:25;;;;;;;2.55;0.82;;;13.70;99.90;;;;;;4789160;29;20046;-75
2020/12/11 13:05:25;;;;;;;5.78;1.13;;;13.80;99.90;;;;;;4802727;29;20038;-79
2020/12/11 13:07:44;;;;;;;9.48;1.40;;;13.80;99.90;;;;;;4803198;29;20082;-76
2020/12/11 13:10:10;;;;;;;3.05;0.60;;;13.90;99.90;;;;;;4802055;29;20042;-76
2020/12/11 13:12:36;;;;;;;7.57;0.93;;;13.90;99.90;;;;;;4791118;29;20043;-75
2020/12/11 13:15:03;;;;;;;4.75;1.20;;;13.90;99.90;;;;;;4784842;29;20406;-78
2020/12/11 13:17:37;;;;;;;5.28;1.13;;;13.90;99.90;;;;;;4788762;29;20474;-79
2020/12/11 13:20:05;;;;;;;5.22;1.60;;;14.00;99.90;;;;;;4801978;29;20063;-75
2020/12/11 13:25:18;;;;;;;4.20;1.27;;;14.20;99.90;;;;;;4807260;29;20042;-77
2020/12/11 13:27:55;;;;;;;3.78;1.30;;;14.70;99.90;;;;;;4794753;29;20042;-75
2020/12/11 13:30:21;;;;;;;3.97;1.42;;;14.80;99.90;;;;;;4784520;30;20046;-78
2020/12/11 13:32:47;;;;;;;4.07;1.70;;;14.90;99.90;;;;;;4784366;29;20039;-76
2020/12/11 13:35:13;;;;;;;6.80;1.20;;;15.10;99.90;;;;;;4784154;29;20035;-75
2020/12/11 13:37:39;;;;;;;2.38;1.30;;;15.50;99.90;;;;;;4787368;29;20508;-75
2020/12/11 13:40:07;;;;;;;2.17;1.15;;;15.80;99.90;;;;;;4801888;29;20031;-75
2020/12/11 13:42:33;;;;;;;2.95;0.50;;;16.10;99.90;;;;;;4802163;29;20055;-76
2020/12/11 13:44:59;;;;;;;3.53;0.82;;;16.40;99.90;;;;;;4802140;29;20478;-76